Hanover, Minnesota
Current Conditions -  °F | °C
As of 11:55 PM on Friday 19 Dec 2014 (Local Time) from KCFE Reporting Station
Haze Haze  
Wind Chill: 23°   Ceiling: 700
Heat Index: 30°   Visibility: 4mi
Dew Point: 28°   Wind: 7mph
Humidity: 90%   Direction: 150°SSE
Pressure: 30.14"   Gusts: NA
Location:  45.16°N, 93.66°W
Report Text: KCFE 200555Z AUTO 15006KT 4SM BR OVC007 M01/M02 A3014 RMK AO2 T10101025 11010 21014 410101062
Loading
Personal Weather Stations






























Interactive Weather Map New forecast layout! Learn more

10-Day Weather Forecast

Advertisements
Track Severe Weather on mobile